createdAt,value
2023-01-19T00:00:07.465Z,98119.00
2023-01-19T00:01:07.388Z,98121.00
2023-01-19T00:02:07.413Z,98121.00
2023-01-19T00:03:07.493Z,98121.00
2023-01-19T00:04:07.429Z,98124.00
2023-01-19T00:05:07.427Z,98121.00
2023-01-19T00:06:07.499Z,98122.00
2023-01-19T00:07:07.426Z,98121.00
2023-01-19T00:08:07.451Z,98123.00
2023-01-19T00:09:07.436Z,98121.00
2023-01-19T00:10:07.420Z,98119.00
2023-01-19T00:11:07.506Z,98127.00
2023-01-19T00:12:07.439Z,98122.00
2023-01-19T00:13:07.459Z,98120.00
2023-01-19T00:14:07.471Z,98122.00
2023-01-19T00:15:07.490Z,98124.00
2023-01-19T00:16:07.569Z,98122.00
2023-01-19T00:17:07.536Z,98121.00
2023-01-19T00:18:09.708Z,98124.00
2023-01-19T00:19:07.536Z,98122.00
2023-01-19T00:20:07.551Z,98123.00
2023-01-19T00:21:07.571Z,98121.00
2023-01-19T00:22:07.594Z,98123.00
2023-01-19T00:23:07.745Z,98126.00
2023-01-19T00:24:07.639Z,98122.00
2023-01-19T00:25:07.666Z,98129.00
2023-01-19T00:26:07.705Z,98126.00
2023-01-19T00:27:07.776Z,98128.00
2023-01-19T00:28:07.693Z,98122.00
2023-01-19T00:29:07.714Z,98126.00
2023-01-19T00:30:07.733Z,98128.00
2023-01-19T00:31:07.834Z,98123.00
2023-01-19T00:32:07.779Z,98131.00
2023-01-19T00:33:07.797Z,98131.00
2023-01-19T00:34:07.815Z,98129.00
2023-01-19T00:35:07.842Z,98127.00
2023-01-19T00:36:07.869Z,98131.00
2023-01-19T00:37:07.890Z,98130.00
2023-01-19T00:38:07.906Z,98131.00
2023-01-19T00:39:07.923Z,98131.00
2023-01-19T00:40:07.949Z,98134.00
2023-01-19T00:41:07.985Z,98132.00
2023-01-19T00:42:07.963Z,98137.00
2023-01-19T00:43:08.019Z,98136.00
2023-01-19T00:44:07.997Z,98139.00
2023-01-19T00:45:07.974Z,98139.00
2023-01-19T00:46:08.065Z,98145.00
2023-01-19T00:47:07.981Z,98147.00
2023-01-19T00:48:08.006Z,98145.00
2023-01-19T00:49:08.021Z,98147.00
2023-01-19T00:50:08.038Z,98146.00
2023-01-19T00:51:08.076Z,98144.00
2023-01-19T00:52:08.085Z,98141.00
2023-01-19T00:53:08.107Z,98138.00
2023-01-19T00:54:08.124Z,98138.00
2023-01-19T00:55:08.144Z,98140.00
2023-01-19T00:56:08.172Z,98139.00
2023-01-19T00:57:08.160Z,98139.00
2023-01-19T00:58:08.169Z,98137.00
2023-01-19T00:59:08.223Z,98136.00
2023-01-19T01:00:08.201Z,98137.00
2023-01-19T01:01:08.377Z,98134.00
2023-01-19T01:02:08.422Z,98135.00
2023-01-19T01:03:08.334Z,98133.00
2023-01-19T01:04:08.213Z,98132.00
2023-01-19T01:05:08.230Z,98135.00
2023-01-19T01:06:08.261Z,98134.00
2023-01-19T01:07:08.251Z,98134.00
2023-01-19T01:08:08.268Z,98128.00
2023-01-19T01:09:08.301Z,98127.00
2023-01-19T01:10:08.331Z,98131.00
2023-01-19T01:11:08.350Z,98134.00
2023-01-19T01:12:08.383Z,98132.00
2023-01-19T01:13:20.714Z,98134.00
2023-01-19T01:14:08.378Z,98132.00
2023-01-19T01:15:08.407Z,98130.00
2023-01-19T01:16:08.393Z,98129.00
2023-01-19T01:17:08.384Z,98130.00
2023-01-19T01:18:08.373Z,98131.00
2023-01-19T01:19:08.404Z,98134.00
2023-01-19T01:20:08.422Z,98135.00
2023-01-19T01:21:08.435Z,98133.00
2023-01-19T01:22:08.451Z,98134.00
2023-01-19T01:23:08.502Z,98134.00
2023-01-19T01:24:08.484Z,98131.00
2023-01-19T01:25:08.501Z,98138.00
2023-01-19T01:26:08.522Z,98142.00
2023-01-19T01:27:08.540Z,98147.00
2023-01-19T01:28:08.586Z,98150.00
2023-01-19T01:29:08.581Z,98155.00
2023-01-19T01:30:08.601Z,98155.00
2023-01-19T01:31:08.639Z,98154.00
2023-01-19T01:32:08.605Z,98150.00
2023-01-19T01:33:08.653Z,98150.00
2023-01-19T01:34:08.629Z,98158.00
2023-01-19T01:35:08.646Z,98161.00
2023-01-19T01:36:08.669Z,98160.00
2023-01-19T01:37:08.683Z,98167.00
2023-01-19T01:38:08.723Z,98163.00
2023-01-19T01:39:08.706Z,98161.00
2023-01-19T01:40:08.719Z,98161.00
2023-01-19T01:41:08.771Z,98162.00
2023-01-19T01:42:08.743Z,98160.00
2023-01-19T01:43:08.766Z,98158.00
2023-01-19T01:44:08.744Z,98155.00
2023-01-19T01:45:08.760Z,98151.00
2023-01-19T01:46:08.818Z,98152.00
2023-01-19T01:47:08.826Z,98153.00
2023-01-19T01:48:08.819Z,98153.00
2023-01-19T01:49:08.848Z,98156.00
2023-01-19T01:50:08.860Z,98162.00
2023-01-19T01:51:08.874Z,98160.00
2023-01-19T01:52:08.889Z,98160.00
2023-01-19T01:53:08.980Z,98159.00
2023-01-19T01:54:08.914Z,98160.00
2023-01-19T01:55:08.928Z,98161.00
2023-01-19T01:56:08.951Z,98161.00
2023-01-19T01:57:08.967Z,98164.00
2023-01-19T01:58:08.980Z,98158.00
2023-01-19T01:59:09.018Z,98160.00
2023-01-19T02:00:08.990Z,98161.00
2023-01-19T02:01:09.167Z,98165.00
2023-01-19T02:02:08.995Z,98164.00
2023-01-19T02:03:09.057Z,98164.00
2023-01-19T02:04:09.023Z,98166.00
2023-01-19T02:05:08.988Z,98165.00
2023-01-19T02:06:09.001Z,98169.00
2023-01-19T02:07:09.035Z,98174.00
2023-01-19T02:08:09.073Z,98175.00
2023-01-19T02:09:09.049Z,98178.00
2023-01-19T02:10:09.083Z,98176.00
2023-01-19T02:11:09.100Z,98176.00
2023-01-19T02:12:09.136Z,98175.00
2023-01-19T02:13:09.146Z,98182.00
2023-01-19T02:14:09.121Z,98182.00
2023-01-19T02:15:09.139Z,98181.00
2023-01-19T02:16:09.154Z,98180.00
2023-01-19T02:17:09.178Z,98176.00
2023-01-19T02:18:09.207Z,98175.00
2023-01-19T02:19:09.207Z,98176.00
2023-01-19T02:20:09.176Z,98166.00
2023-01-19T02:21:09.194Z,98171.00
2023-01-19T02:22:09.212Z,98168.00
2023-01-19T02:23:09.234Z,98165.00
2023-01-19T02:24:09.258Z,98168.00
2023-01-19T02:25:09.289Z,98166.00
2023-01-19T02:26:09.306Z,98171.00
2023-01-19T02:27:09.327Z,98165.00
2023-01-19T02:28:09.377Z,98167.00
2023-01-19T02:29:09.368Z,98166.00
2023-01-19T02:30:09.361Z,98164.00
2023-01-19T02:31:09.380Z,98166.00
2023-01-19T02:32:09.398Z,98168.00
2023-01-19T02:33:09.428Z,98165.00
2023-01-19T02:34:09.413Z,98168.00
2023-01-19T02:35:09.456Z,98169.00
2023-01-19T02:36:09.434Z,98170.00
2023-01-19T02:37:09.457Z,98174.00
2023-01-19T02:38:09.502Z,98170.00
2023-01-19T02:39:09.480Z,98178.00
2023-01-19T02:40:09.514Z,98175.00
2023-01-19T02:41:09.485Z,98175.00
2023-01-19T02:42:09.512Z,98176.00
2023-01-19T02:43:09.564Z,98170.00
2023-01-19T02:44:09.538Z,98173.00
2023-01-19T02:45:09.569Z,98172.00
2023-01-19T02:46:09.623Z,98170.00
2023-01-19T02:47:09.601Z,98167.00
2023-01-19T02:48:09.624Z,98173.00
2023-01-19T02:49:09.657Z,98175.00
2023-01-19T02:50:09.673Z,98172.00
2023-01-19T02:51:09.731Z,98174.00
2023-01-19T02:52:09.701Z,98172.00
2023-01-19T02:53:09.722Z,98166.00
2023-01-19T02:54:09.758Z,98166.00
2023-01-19T02:55:09.739Z,98171.00
2023-01-19T02:56:09.763Z,98167.00
2023-01-19T02:57:09.785Z,98173.00
2023-01-19T02:58:09.781Z,98175.00
2023-01-19T02:59:09.758Z,98170.00
2023-01-19T03:00:09.869Z,98172.00
2023-01-19T03:01:09.883Z,98169.00
2023-01-19T03:02:09.895Z,98172.00
2023-01-19T03:03:09.795Z,98166.00
2023-01-19T03:04:09.809Z,98171.00
2023-01-19T03:05:09.837Z,98169.00
2023-01-19T03:06:09.858Z,98171.00
2023-01-19T03:07:09.913Z,98168.00
2023-01-19T03:08:09.894Z,98166.00
2023-01-19T03:09:09.917Z,98165.00
2023-01-19T03:10:09.949Z,98158.00
2023-01-19T03:11:09.970Z,98161.00
2023-01-19T03:12:10.009Z,98160.00
2023-01-19T03:13:09.992Z,98159.00
2023-01-19T03:14:10.016Z,98163.00
2023-01-19T03:15:10.030Z,98165.00
2023-01-19T03:16:10.256Z,98165.00
2023-01-19T03:17:10.067Z,98162.00
2023-01-19T03:18:10.051Z,98156.00
2023-01-19T03:19:10.071Z,98158.00
2023-01-19T03:20:10.085Z,98164.00
2023-01-19T03:21:10.117Z,98168.00
2023-01-19T03:22:10.126Z,98167.00
2023-01-19T03:23:10.132Z,98165.00
2023-01-19T03:24:10.098Z,98165.00
2023-01-19T03:25:10.121Z,98169.00
2023-01-19T03:26:10.140Z,98170.00
2023-01-19T03:27:10.167Z,98171.00
2023-01-19T03:28:10.191Z,98171.00
2023-01-19T03:29:10.212Z,98169.00
2023-01-19T03:30:10.221Z,98169.00
2023-01-19T03:31:10.291Z,98169.00
2023-01-19T03:32:10.238Z,98162.00
2023-01-19T03:33:10.218Z,98165.00
2023-01-19T03:34:10.230Z,98168.00
2023-01-19T03:35:10.250Z,98171.00
2023-01-19T03:36:10.267Z,98166.00
2023-01-19T03:37:10.314Z,98169.00
2023-01-19T03:38:10.291Z,98167.00
2023-01-19T03:39:10.298Z,98168.00
2023-01-19T03:40:10.271Z,98163.00
2023-01-19T03:41:10.295Z,98168.00
2023-01-19T03:42:10.325Z,98164.00
2023-01-19T03:43:10.343Z,98166.00
2023-01-19T03:44:10.367Z,98169.00
2023-01-19T03:45:10.393Z,98171.00
2023-01-19T03:46:10.439Z,98173.00
2023-01-19T03:47:10.426Z,98176.00
2023-01-19T03:48:10.443Z,98178.00
2023-01-19T03:49:10.472Z,98181.00
2023-01-19T03:50:10.491Z,98182.00
2023-01-19T03:51:10.534Z,98183.00
2023-01-19T03:52:10.527Z,98185.00
2023-01-19T03:53:10.550Z,98185.00
2023-01-19T03:54:10.547Z,98186.00
2023-01-19T03:55:10.548Z,98185.00
2023-01-19T03:56:10.527Z,98184.00
2023-01-19T03:57:10.540Z,98183.00
2023-01-19T03:58:10.559Z,98188.00
2023-01-19T03:59:10.581Z,98188.00
2023-01-19T04:00:10.563Z,98182.00
2023-01-19T04:01:10.711Z,98188.00
2023-01-19T04:02:10.638Z,98192.00
2023-01-19T04:03:10.666Z,98189.00
2023-01-19T04:04:10.625Z,98190.00
2023-01-19T04:05:10.645Z,98189.00
2023-01-19T04:06:10.676Z,98185.00
2023-01-19T04:07:10.738Z,98186.00
2023-01-19T04:08:10.708Z,98186.00
2023-01-19T04:09:10.736Z,98190.00
2023-01-19T04:10:10.755Z,98183.00
2023-01-19T04:11:10.815Z,98184.00
2023-01-19T04:12:10.798Z,98185.00
2023-01-19T04:13:10.777Z,98184.00
2023-01-19T04:14:10.778Z,98187.00
2023-01-19T04:15:10.796Z,98187.00
2023-01-19T04:16:10.854Z,98190.00
2023-01-19T04:17:10.844Z,98195.00
2023-01-19T04:18:10.868Z,98196.00
2023-01-19T04:19:10.880Z,98196.00
2023-01-19T04:20:10.899Z,98194.00
2023-01-19T04:21:10.934Z,98195.00
2023-01-19T04:22:10.963Z,98194.00
2023-01-19T04:23:10.965Z,98198.00
2023-01-19T04:24:10.960Z,98199.00
2023-01-19T04:25:10.951Z,98196.00
2023-01-19T04:26:10.967Z,98195.00
2023-01-19T04:27:11.033Z,98198.00
2023-01-19T04:28:11.010Z,98194.00
2023-01-19T04:29:10.994Z,98194.00
2023-01-19T04:30:11.029Z,98195.00
2023-01-19T04:31:11.057Z,98190.00
2023-01-19T04:32:11.009Z,98190.00
2023-01-19T04:33:11.044Z,98189.00
2023-01-19T04:34:11.039Z,98186.00
2023-01-19T04:35:11.033Z,98192.00
2023-01-19T04:36:11.005Z,98194.00
2023-01-19T04:37:11.076Z,98196.00
2023-01-19T04:38:11.054Z,98194.00
2023-01-19T04:39:11.081Z,98187.00
2023-01-19T04:40:11.095Z,98192.00
2023-01-19T04:41:11.135Z,98192.00
2023-01-19T04:42:11.114Z,98187.00
2023-01-19T04:43:11.204Z,98192.00
2023-01-19T04:44:11.122Z,98187.00
2023-01-19T04:45:11.138Z,98191.00
2023-01-19T04:46:11.201Z,98192.00
2023-01-19T04:47:11.175Z,98190.00
2023-01-19T04:48:11.212Z,98189.00
2023-01-19T04:49:11.202Z,98192.00
2023-01-19T04:50:11.255Z,98189.00
2023-01-19T04:51:11.238Z,98197.00
2023-01-19T04:52:11.252Z,98201.00
2023-01-19T04:53:11.276Z,98200.00
2023-01-19T04:54:11.308Z,98194.00
2023-01-19T04:55:11.307Z,98195.00
2023-01-19T04:56:11.329Z,98190.00
2023-01-19T04:57:11.311Z,98190.00
2023-01-19T04:58:11.341Z,98194.00
2023-01-19T04:59:11.373Z,98202.00
2023-01-19T05:00:11.380Z,98201.00
2023-01-19T05:01:11.410Z,98202.00
2023-01-19T05:02:11.462Z,98203.00
2023-01-19T05:03:11.535Z,98200.00
2023-01-19T05:04:11.403Z,98201.00
2023-01-19T05:05:11.435Z,98198.00
2023-01-19T05:06:11.409Z,98202.00
2023-01-19T05:07:11.488Z,98206.00
2023-01-19T05:08:11.454Z,98208.00
2023-01-19T05:09:11.428Z,98205.00
2023-01-19T05:10:11.449Z,98208.00
2023-01-19T05:11:11.472Z,98210.00
2023-01-19T05:12:11.492Z,98207.00
2023-01-19T05:13:11.526Z,98205.00
2023-01-19T05:14:11.507Z,98206.00
2023-01-19T05:15:11.560Z,98205.00
2023-01-19T05:16:11.634Z,98199.00
2023-01-19T05:17:11.540Z,98205.00
2023-01-19T05:18:11.565Z,98203.00
2023-01-19T05:19:11.588Z,98206.00
2023-01-19T05:20:11.606Z,98202.00
2023-01-19T05:21:11.622Z,98206.00
2023-01-19T05:22:11.599Z,98203.00
2023-01-19T05:23:11.598Z,98205.00
2023-01-19T05:24:11.607Z,98206.00
2023-01-19T05:25:11.628Z,98205.00
2023-01-19T05:26:11.652Z,98207.00
2023-01-19T05:27:11.639Z,98210.00
2023-01-19T05:28:11.689Z,98206.00
2023-01-19T05:29:11.668Z,98209.00
2023-01-19T05:30:11.702Z,98207.00
2023-01-19T05:31:11.857Z,98203.00
2023-01-19T05:32:11.674Z,98201.00
2023-01-19T05:33:11.689Z,98202.00
2023-01-19T05:34:11.701Z,98201.00
2023-01-19T05:35:11.745Z,98204.00
2023-01-19T05:36:11.719Z,98206.00
2023-01-19T05:37:11.747Z,98201.00
2023-01-19T05:38:11.743Z,98208.00
2023-01-19T05:39:11.757Z,98210.00
2023-01-19T05:40:11.780Z,98210.00
2023-01-19T05:41:11.796Z,98210.00
2023-01-19T05:42:11.823Z,98210.00
2023-01-19T05:43:11.806Z,98208.00
2023-01-19T05:44:11.827Z,98211.00
2023-01-19T05:45:11.830Z,98212.00
2023-01-19T05:46:11.857Z,98212.00
2023-01-19T05:47:11.907Z,98210.00
2023-01-19T05:48:11.896Z,98211.00
2023-01-19T05:49:11.874Z,98210.00
2023-01-19T05:50:11.905Z,98208.00
2023-01-19T05:51:11.934Z,98210.00
2023-01-19T05:52:11.954Z,98213.00
2023-01-19T05:53:11.971Z,98219.00
2023-01-19T05:54:11.982Z,98216.00
2023-01-19T05:55:12.003Z,98212.00
2023-01-19T05:56:12.041Z,98216.00
2023-01-19T05:57:12.028Z,98219.00
2023-01-19T05:58:12.052Z,98221.00
2023-01-19T05:59:12.080Z,98216.00
2023-01-19T06:00:12.068Z,98220.00
2023-01-19T06:02:38.007Z,98221.00
2023-01-19T06:03:38.068Z,98225.00
2023-01-19T06:04:38.006Z,98229.00
2023-01-19T06:05:38.029Z,98228.00
2023-01-19T06:06:38.005Z,98226.00
2023-01-19T06:07:38.028Z,98224.00
2023-01-19T06:08:38.059Z,98226.00
2023-01-19T06:09:38.076Z,98223.00
2023-01-19T06:10:38.119Z,98222.00
2023-01-19T06:11:38.098Z,98225.00
2023-01-19T06:12:38.120Z,98227.00
2023-01-19T06:13:38.148Z,98226.00
2023-01-19T06:14:38.164Z,98232.00
2023-01-19T06:15:38.217Z,98219.00
2023-01-19T06:16:38.234Z,98225.00
2023-01-19T06:17:38.211Z,98227.00
2023-01-19T06:18:38.259Z,98224.00
2023-01-19T06:19:38.227Z,98230.00
2023-01-19T06:20:38.252Z,98229.00
2023-01-19T06:21:38.271Z,98229.00
2023-01-19T06:22:38.299Z,98223.00
2023-01-19T06:23:38.315Z,98221.00
2023-01-19T06:24:38.347Z,98225.00
2023-01-19T06:25:38.388Z,98221.00
2023-01-19T06:26:38.374Z,98223.00
2023-01-19T06:27:38.384Z,98227.00
2023-01-19T06:28:38.411Z,98221.00
2023-01-19T06:29:38.397Z,98222.00
2023-01-19T06:30:38.479Z,98223.00
2023-01-19T06:31:38.457Z,98224.00
2023-01-19T06:32:38.458Z,98224.00
2023-01-19T06:33:38.444Z,98225.00
2023-01-19T06:34:38.493Z,98222.00
2023-01-19T06:35:38.469Z,98226.00
2023-01-19T06:36:38.460Z,98225.00
2023-01-19T06:37:38.490Z,98229.00
2023-01-19T06:38:38.504Z,98224.00
2023-01-19T06:39:38.518Z,98229.00
2023-01-19T06:40:38.535Z,98234.00
2023-01-19T06:41:38.549Z,98235.00
2023-01-19T06:42:38.563Z,98234.00
2023-01-19T06:43:38.584Z,98239.00
2023-01-19T06:44:38.605Z,98236.00
2023-01-19T06:45:38.688Z,98239.00
2023-01-19T06:46:38.643Z,98240.00
2023-01-19T06:47:38.633Z,98239.00
2023-01-19T06:48:38.658Z,98243.00
2023-01-19T06:49:38.701Z,98246.00
2023-01-19T06:50:38.715Z,98247.00
2023-01-19T06:51:38.687Z,98248.00
2023-01-19T06:52:38.704Z,98250.00
2023-01-19T06:53:38.732Z,98252.00
2023-01-19T06:54:38.747Z,98250.00
2023-01-19T06:55:38.757Z,98254.00
2023-01-19T06:56:38.777Z,98253.00
2023-01-19T06:57:38.803Z,98252.00
2023-01-19T06:58:38.812Z,98255.00
2023-01-19T06:59:38.826Z,98255.00
2023-01-19T07:00:38.861Z,98255.00
2023-01-19T07:01:39.072Z,98257.00
2023-01-19T07:02:39.012Z,98252.00
2023-01-19T07:03:38.884Z,98255.00
2023-01-19T07:04:38.926Z,98260.00
2023-01-19T07:05:38.891Z,98264.00
2023-01-19T07:06:38.925Z,98266.00
2023-01-19T07:07:38.921Z,98267.00
2023-01-19T07:08:38.922Z,98268.00
2023-01-19T07:09:38.946Z,98269.00
2023-01-19T07:11:26.140Z,98272.00
2023-01-19T07:11:38.954Z,98266.00
2023-01-19T07:12:38.944Z,98272.00
2023-01-19T07:13:38.981Z,98272.00
2023-01-19T07:14:38.999Z,98275.00
2023-01-19T07:15:39.015Z,98273.00
2023-01-19T07:16:39.164Z,98280.00
2023-01-19T07:17:39.038Z,98280.00
2023-01-19T07:18:39.060Z,98275.00
2023-01-19T07:19:39.062Z,98276.00
2023-01-19T07:20:39.079Z,98280.00
2023-01-19T07:21:39.065Z,98280.00
2023-01-19T07:22:39.607Z,98272.00
2023-01-19T07:23:39.115Z,98276.00
2023-01-19T07:24:39.152Z,98279.00
2023-01-19T07:25:39.178Z,98280.00
2023-01-19T07:26:39.200Z,98281.00
2023-01-19T07:27:39.231Z,98281.00
2023-01-19T07:28:39.265Z,98285.00
2023-01-19T07:29:39.280Z,98284.00
2023-01-19T07:30:39.336Z,98283.00
2023-01-19T07:31:39.351Z,98287.00
2023-01-19T07:32:39.311Z,98288.00
2023-01-19T07:33:39.307Z,98285.00
2023-01-19T07:34:39.332Z,98278.00
2023-01-19T07:35:39.365Z,98281.00
2023-01-19T07:36:39.359Z,98283.00
2023-01-19T07:37:39.343Z,98285.00
2023-01-19T07:38:39.433Z,98287.00
2023-01-19T07:39:39.395Z,98287.00
2023-01-19T07:40:39.370Z,98284.00
2023-01-19T07:41:39.408Z,98281.00
2023-01-19T07:42:39.435Z,98280.00
2023-01-19T07:43:39.465Z,98278.00
2023-01-19T07:44:39.501Z,98276.00
2023-01-19T07:45:39.563Z,98280.00
2023-01-19T07:46:39.474Z,98279.00
2023-01-19T07:47:39.503Z,98279.00
2023-01-19T07:48:39.537Z,98276.00
2023-01-19T07:49:39.530Z,98280.00
2023-01-19T07:50:39.567Z,98270.00
2023-01-19T07:51:39.544Z,98276.00
2023-01-19T07:52:39.619Z,98278.00
2023-01-19T07:53:39.609Z,98275.00
2023-01-19T07:54:39.666Z,98272.00
2023-01-19T07:55:39.644Z,98278.00
2023-01-19T07:56:39.678Z,98277.00
2023-01-19T07:57:39.672Z,98276.00
2023-01-19T07:58:39.694Z,98272.00
2023-01-19T07:59:39.764Z,98276.00
2023-01-19T08:00:39.737Z,98274.00
2023-01-19T08:01:39.846Z,98275.00
2023-01-19T08:02:39.744Z,98278.00
2023-01-19T08:03:39.784Z,98278.00
2023-01-19T08:04:39.817Z,98281.00
2023-01-19T08:05:39.836Z,98288.00
2023-01-19T08:06:39.870Z,98288.00
2023-01-19T08:07:39.900Z,98290.00
2023-01-19T08:08:39.936Z,98294.00
2023-01-19T08:09:39.937Z,98298.00
2023-01-19T08:10:39.987Z,98299.00
2023-01-19T08:11:39.971Z,98301.00
2023-01-19T08:12:39.993Z,98306.00
2023-01-19T08:13:40.028Z,98307.00
2023-01-19T08:14:40.059Z,98307.00
2023-01-19T08:15:40.111Z,98308.00
2023-01-19T08:16:40.103Z,98308.00
2023-01-19T08:17:40.133Z,98308.00
2023-01-19T08:18:41.019Z,98307.00
2023-01-19T08:19:41.590Z,98315.00
2023-01-19T08:20:40.193Z,98316.00
2023-01-19T08:21:40.227Z,98313.00
2023-01-19T08:22:40.212Z,98316.00
2023-01-19T08:23:40.262Z,98313.00
2023-01-19T08:24:40.264Z,98315.00
2023-01-19T08:25:40.248Z,98315.00
2023-01-19T08:26:40.301Z,98318.00
2023-01-19T08:27:40.276Z,98318.00
2023-01-19T08:28:40.315Z,98319.00
2023-01-19T08:29:40.307Z,98318.00
2023-01-19T08:30:40.569Z,98324.00
2023-01-19T08:31:40.484Z,98320.00
2023-01-19T08:32:40.383Z,98323.00
2023-01-19T08:33:40.403Z,98320.00
2023-01-19T08:34:40.442Z,98323.00
2023-01-19T08:35:40.440Z,98321.00
2023-01-19T08:36:40.439Z,98324.00
2023-01-19T08:37:40.427Z,98325.00
2023-01-19T08:38:40.459Z,98326.00
2023-01-19T08:39:40.493Z,98327.00
2023-01-19T08:40:40.481Z,98331.00
2023-01-19T08:41:40.519Z,98327.00
2023-01-19T08:42:40.531Z,98325.00
2023-01-19T08:43:40.505Z,98336.00
2023-01-19T08:44:49.735Z,98334.00
2023-01-19T08:45:40.496Z,98341.00
2023-01-19T08:46:40.592Z,98332.00
2023-01-19T08:47:40.615Z,98333.00
2023-01-19T08:48:40.541Z,98333.00
2023-01-19T08:49:40.576Z,98337.00
2023-01-19T08:50:40.600Z,98333.00
2023-01-19T08:51:40.607Z,98336.00
2023-01-19T08:52:40.586Z,98327.00
2023-01-19T08:53:40.603Z,98332.00
2023-01-19T08:54:40.637Z,98331.00
2023-01-19T08:55:40.631Z,98331.00
2023-01-19T08:56:40.672Z,98332.00
2023-01-19T08:57:40.658Z,98329.00
2023-01-19T08:58:40.763Z,98331.00
2023-01-19T08:59:40.703Z,98336.00
2023-01-19T09:00:40.700Z,98331.00
2023-01-19T09:01:40.788Z,98330.00
2023-01-19T09:02:40.728Z,98331.00
2023-01-19T09:03:40.695Z,98330.00
2023-01-19T09:04:40.724Z,98329.00
2023-01-19T09:05:40.718Z,98331.00
2023-01-19T09:06:40.746Z,98331.00
2023-01-19T09:07:40.778Z,98333.00
2023-01-19T09:08:40.799Z,98333.00
2023-01-19T09:09:40.860Z,98334.00
2023-01-19T09:10:40.838Z,98328.00
2023-01-19T09:11:40.895Z,98332.00
2023-01-19T09:12:40.845Z,98332.00
2023-01-19T09:13:40.820Z,98328.00
2023-01-19T09:14:40.899Z,98324.00
2023-01-19T09:15:40.973Z,98327.00
2023-01-19T09:16:40.886Z,98328.00
2023-01-19T09:17:40.892Z,98331.00
2023-01-19T09:18:40.879Z,98328.00
2023-01-19T09:19:40.897Z,98330.00
2023-01-19T09:20:40.877Z,98324.00
2023-01-19T09:21:40.881Z,98333.00
2023-01-19T09:22:40.883Z,98335.00
2023-01-19T09:23:40.869Z,98331.00
2023-01-19T09:24:40.853Z,98325.00
2023-01-19T09:25:40.896Z,98329.00
2023-01-19T09:26:40.900Z,98324.00
2023-01-19T09:27:40.890Z,98321.00
2023-01-19T09:28:40.865Z,98321.00
2023-01-19T09:29:40.855Z,98324.00
2023-01-19T09:30:40.958Z,98322.00
2023-01-19T09:31:40.874Z,98323.00
2023-01-19T09:32:40.863Z,98322.00
2023-01-19T09:33:40.906Z,98320.00
2023-01-19T09:34:40.896Z,98317.00
2023-01-19T09:35:40.910Z,98318.00
2023-01-19T09:36:40.936Z,98323.00
2023-01-19T09:37:40.966Z,98318.00
2023-01-19T09:38:41.011Z,98322.00
2023-01-19T09:39:41.037Z,98319.00
2023-01-19T09:40:42.193Z,98318.00
2023-01-19T09:41:41.047Z,98319.00
2023-01-19T09:42:41.047Z,98319.00
2023-01-19T09:43:41.052Z,98320.00
2023-01-19T09:44:41.031Z,98321.00
2023-01-19T09:45:41.044Z,98322.00
2023-01-19T09:46:41.133Z,98319.00
2023-01-19T09:47:41.068Z,98319.00
2023-01-19T09:48:41.102Z,98313.00
2023-01-19T09:49:41.085Z,98314.00
2023-01-19T09:50:42.918Z,98321.00
2023-01-19T09:51:41.122Z,98323.00
2023-01-19T09:52:41.210Z,98318.00
2023-01-19T09:53:41.192Z,98320.00
2023-01-19T09:54:41.175Z,98318.00
2023-01-19T09:55:41.219Z,98325.00
2023-01-19T09:56:41.219Z,98316.00
2023-01-19T09:57:41.203Z,98319.00
2023-01-19T09:58:41.245Z,98324.00
2023-01-19T09:59:41.227Z,98316.00
2023-01-19T10:00:41.281Z,98317.00
2023-01-19T10:01:41.370Z,98318.00
2023-01-19T10:02:41.401Z,98317.00
2023-01-19T10:03:41.317Z,98313.00
2023-01-19T10:04:41.284Z,98318.00
2023-01-19T10:05:41.285Z,98316.00
2023-01-19T10:06:41.307Z,98319.00
2023-01-19T10:07:41.315Z,98323.00
2023-01-19T10:08:41.334Z,98327.00
2023-01-19T10:09:41.319Z,98322.00
2023-01-19T10:10:41.291Z,98324.00
2023-01-19T10:11:51.826Z,98323.00
2023-01-19T10:12:41.338Z,98323.00
2023-01-19T10:13:41.365Z,98323.00
2023-01-19T10:14:41.387Z,98326.00
2023-01-19T10:15:41.420Z,98326.00
2023-01-19T10:16:41.453Z,98327.00
2023-01-19T10:17:41.440Z,98328.00
2023-01-19T10:18:41.493Z,98329.00
2023-01-19T10:19:41.468Z,98327.00
2023-01-19T10:20:41.491Z,98327.00
2023-01-19T10:21:41.474Z,98331.00
2023-01-19T10:22:41.510Z,98333.00
2023-01-19T10:23:41.538Z,98330.00
2023-01-19T10:24:41.526Z,98330.00
2023-01-19T10:25:41.558Z,98328.00
2023-01-19T10:26:41.527Z,98324.00
2023-01-19T10:27:41.593Z,98322.00
2023-01-19T10:28:41.631Z,98323.00
2023-01-19T10:29:41.564Z,98319.00
2023-01-19T10:30:41.654Z,98319.00
2023-01-19T10:31:41.734Z,98322.00
2023-01-19T10:32:41.640Z,98320.00
2023-01-19T10:33:41.653Z,98314.00
2023-01-19T10:34:41.764Z,98318.00
2023-01-19T10:35:41.655Z,98315.00
2023-01-19T10:36:41.711Z,98312.00
2023-01-19T10:37:41.708Z,98314.00
2023-01-19T10:38:41.745Z,98316.00
2023-01-19T10:39:41.758Z,98312.00
2023-01-19T10:40:41.732Z,98314.00
2023-01-19T10:41:41.772Z,98310.00
2023-01-19T10:42:41.757Z,98311.00
2023-01-19T10:43:41.819Z,98310.00
2023-01-19T10:44:41.815Z,98312.00
2023-01-19T10:45:41.855Z,98316.00
2023-01-19T10:46:41.798Z,98317.00
2023-01-19T10:47:41.840Z,98316.00
2023-01-19T10:48:41.786Z,98313.00
2023-01-19T10:49:41.819Z,98317.00
2023-01-19T10:50:41.863Z,98315.00
2023-01-19T10:51:41.917Z,98315.00
2023-01-19T10:52:41.869Z,98314.00
2023-01-19T10:53:41.876Z,98314.00
2023-01-19T10:54:41.863Z,98319.00
2023-01-19T10:55:41.917Z,98319.00
2023-01-19T10:56:41.862Z,98311.00
2023-01-19T10:57:41.940Z,98309.00
2023-01-19T10:58:41.904Z,98311.00
2023-01-19T10:59:41.921Z,98310.00
2023-01-19T11:00:42.037Z,98311.00
2023-01-19T11:01:42.080Z,98311.00
2023-01-19T11:02:42.027Z,98309.00
2023-01-19T11:03:41.930Z,98310.00
2023-01-19T11:04:41.973Z,98305.00
2023-01-19T11:05:41.907Z,98313.00
2023-01-19T11:06:41.965Z,98308.00
2023-01-19T11:07:41.938Z,98320.00
2023-01-19T11:08:41.947Z,98318.00
2023-01-19T11:09:41.976Z,98313.00
2023-01-19T11:10:42.006Z,98310.00
2023-01-19T11:11:42.072Z,98306.00
2023-01-19T11:12:42.027Z,98311.00
2023-01-19T11:13:42.011Z,98307.00
2023-01-19T11:14:42.049Z,98312.00
2023-01-19T11:15:42.078Z,98310.00
2023-01-19T11:16:42.116Z,98306.00
2023-01-19T11:17:42.091Z,98308.00
2023-01-19T11:18:42.111Z,98307.00
2023-01-19T11:19:42.151Z,98312.00
2023-01-19T11:20:42.192Z,98313.00
2023-01-19T11:21:42.178Z,98309.00
2023-01-19T11:22:42.221Z,98306.00
2023-01-19T11:23:42.197Z,98304.00
2023-01-19T11:24:42.184Z,98309.00
2023-01-19T11:25:42.226Z,98309.00
2023-01-19T11:26:42.235Z,98307.00
2023-01-19T11:27:42.208Z,98307.00
2023-01-19T11:28:44.842Z,98302.00
2023-01-19T11:29:42.258Z,98306.00
2023-01-19T11:30:42.337Z,98306.00
2023-01-19T11:31:42.325Z,98303.00
2023-01-19T11:32:42.311Z,98306.00
2023-01-19T11:33:42.364Z,98303.00
2023-01-19T11:34:42.354Z,98309.00
2023-01-19T11:35:42.383Z,98311.00
2023-01-19T11:36:42.371Z,98305.00
2023-01-19T11:37:42.396Z,98306.00
2023-01-19T11:38:42.423Z,98311.00
2023-01-19T11:39:42.403Z,98310.00
2023-01-19T11:40:42.444Z,98313.00
2023-01-19T11:41:42.423Z,98316.00
2023-01-19T11:42:42.454Z,98322.00
2023-01-19T11:43:49.079Z,98319.00
2023-01-19T11:44:42.463Z,98311.00
2023-01-19T11:45:42.533Z,98312.00